createdAt,value
2022-12-16T00:01:18.627Z,51.50
2022-12-16T00:03:56.792Z,47.90
2022-12-16T00:06:26.343Z,37.60
2022-12-16T00:08:53.065Z,1.00
2022-12-16T00:11:20.412Z,15.10
2022-12-16T00:13:47.201Z,16.90
2022-12-16T00:16:16.421Z,1.00
2022-12-16T00:18:43.204Z,26.70
2022-12-16T00:21:10.455Z,1.00
2022-12-16T00:23:39.248Z,11.20
2022-12-16T00:26:06.262Z,9.00
2022-12-16T00:28:33.171Z,1.00
2022-12-16T00:30:59.812Z,1.00
2022-12-16T00:33:27.703Z,99.90
2022-12-16T00:35:55.005Z,1.00
2022-12-16T00:38:22.916Z,1.00
2022-12-16T00:40:49.725Z,90.00
2022-12-16T00:43:20.104Z,99.90
2022-12-16T00:45:47.700Z,1.00
2022-12-16T00:48:15.076Z,99.90
2022-12-16T00:50:44.116Z,99.90
2022-12-16T00:53:10.692Z,99.90
2022-12-16T00:55:37.319Z,99.90
2022-12-16T00:58:03.903Z,99.90
2022-12-16T01:00:30.544Z,1.00
2022-12-16T01:02:58.319Z,1.00
2022-12-16T01:05:26.878Z,1.00
2022-12-16T01:07:55.144Z,1.00
2022-12-16T01:10:23.911Z,1.00
2022-12-16T01:12:50.967Z,1.00
2022-12-16T01:15:18.493Z,1.00
2022-12-16T01:17:45.634Z,1.00
2022-12-16T01:20:13.362Z,1.10
2022-12-16T01:22:40.480Z,1.00
2022-12-16T01:25:08.190Z,1.00
2022-12-16T01:27:35.243Z,1.00
2022-12-16T01:30:01.866Z,1.00
2022-12-16T01:32:28.541Z,2.60
2022-12-16T01:34:55.842Z,1.00
2022-12-16T01:37:23.821Z,1.00
2022-12-16T01:39:51.054Z,1.00
2022-12-16T01:42:21.343Z,2.20
2022-12-16T01:44:52.143Z,1.00
2022-12-16T01:47:30.507Z,1.00
2022-12-16T01:50:04.253Z,1.00
2022-12-16T01:52:37.402Z,1.00
2022-12-16T01:55:13.279Z,1.00
2022-12-16T01:57:59.205Z,1.00
2022-12-16T02:00:25.834Z,1.00
2022-12-16T02:02:54.430Z,1.00
2022-12-16T02:05:22.772Z,1.00
2022-12-16T02:07:55.487Z,1.00
2022-12-16T02:10:38.687Z,1.00
2022-12-16T02:13:42.933Z,1.00
2022-12-16T02:16:27.588Z,1.00
2022-12-16T02:19:17.196Z,1.00
2022-12-16T02:22:00.734Z,1.00
2022-12-16T02:24:54.395Z,1.00
2022-12-16T02:27:45.719Z,1.00
2022-12-16T02:30:39.804Z,1.00
2022-12-16T02:33:41.478Z,1.00
2022-12-16T02:36:42.987Z,1.00
2022-12-16T02:39:14.595Z,1.00
2022-12-16T02:45:53.878Z,1.00
2022-12-16T02:48:20.861Z,2.00
2022-12-16T02:50:50.732Z,1.00
2022-12-16T02:53:19.180Z,6.60
2022-12-16T02:56:07.710Z,35.40
2022-12-16T02:58:37.083Z,33.70
2022-12-16T03:01:12.000Z,61.90
2022-12-16T03:04:05.802Z,33.50
2022-12-16T03:06:36.234Z,22.60
2022-12-16T03:09:08.062Z,76.70
2022-12-16T03:11:36.479Z,38.70
2022-12-16T03:14:06.151Z,99.90
2022-12-16T03:16:34.467Z,99.90
2022-12-16T03:19:04.889Z,99.90
2022-12-16T03:21:39.452Z,1.00
2022-12-16T03:24:10.597Z,99.90
2022-12-16T03:26:50.402Z,1.00
2022-12-16T03:29:37.772Z,1.00
2022-12-16T03:32:12.797Z,74.10
2022-12-16T03:34:45.511Z,92.70
2022-12-16T03:37:13.180Z,94.30
2022-12-16T03:39:45.403Z,95.00
2022-12-16T03:42:15.404Z,95.00
2022-12-16T03:44:44.896Z,95.10
2022-12-16T03:47:11.579Z,95.10
2022-12-16T03:49:38.467Z,95.00
2022-12-16T03:52:05.629Z,95.10
2022-12-16T03:54:32.260Z,95.30
2022-12-16T03:56:59.336Z,95.40
2022-12-16T03:59:25.907Z,95.50
2022-12-16T04:01:52.989Z,95.40
2022-12-16T04:04:19.772Z,95.40
2022-12-16T04:07:06.369Z,95.20
2022-12-16T04:09:32.972Z,95.30
2022-12-16T04:12:18.060Z,95.10
2022-12-16T04:15:03.280Z,95.30
2022-12-16T04:17:48.631Z,95.40
2022-12-16T04:20:35.892Z,95.60
2022-12-16T04:23:21.684Z,95.90
2022-12-16T04:25:48.395Z,95.60
2022-12-16T04:28:14.979Z,95.50
2022-12-16T04:30:41.876Z,95.30
2022-12-16T04:33:31.458Z,95.50
2022-12-16T04:36:17.042Z,95.30
2022-12-16T04:39:02.511Z,95.60
2022-12-16T04:41:47.673Z,95.50
2022-12-16T04:44:33.168Z,95.30
2022-12-16T04:47:18.549Z,95.40
2022-12-16T04:50:03.911Z,95.40
2022-12-16T04:52:49.412Z,95.50
2022-12-16T04:55:34.835Z,95.20
2022-12-16T04:58:20.944Z,95.10
2022-12-16T05:01:07.632Z,95.40
2022-12-16T05:03:53.400Z,95.40
2022-12-16T05:06:39.654Z,95.40
2022-12-16T05:09:26.062Z,95.30
2022-12-16T05:12:11.618Z,94.90
2022-12-16T05:14:57.057Z,94.90
2022-12-16T05:17:42.219Z,94.90
2022-12-16T05:20:27.481Z,95.00
2022-12-16T05:23:15.147Z,94.90
2022-12-16T05:26:01.037Z,94.90
2022-12-16T05:28:46.537Z,94.90
2022-12-16T05:31:31.888Z,94.90
2022-12-16T05:34:17.147Z,94.90
2022-12-16T05:37:02.529Z,94.90
2022-12-16T05:39:47.999Z,94.90
2022-12-16T05:42:33.461Z,94.90
2022-12-16T05:45:18.963Z,94.90
2022-12-16T05:48:07.376Z,95.30
2022-12-16T05:50:52.897Z,95.30
2022-12-16T05:53:40.695Z,95.30
2022-12-16T05:56:25.900Z,95.30
2022-12-16T05:59:11.218Z,95.40
2022-12-16T06:01:56.801Z,95.30
2022-12-16T06:04:42.044Z,95.40
2022-12-16T06:07:27.267Z,95.40
2022-12-16T06:10:12.748Z,95.30
2022-12-16T06:12:58.088Z,95.30
2022-12-16T06:15:43.446Z,95.20
2022-12-16T06:18:28.996Z,95.10
2022-12-16T06:23:57.911Z,94.90
2022-12-16T06:26:43.018Z,94.90
2022-12-16T06:29:28.524Z,94.90
2022-12-16T06:32:13.789Z,94.70
2022-12-16T06:34:58.834Z,94.90
2022-12-16T06:37:44.298Z,94.70
2022-12-16T06:40:29.643Z,94.70
2022-12-16T06:43:15.953Z,94.70
2022-12-16T06:46:01.229Z,80.90
2022-12-16T06:48:46.676Z,1.00
2022-12-16T06:51:32.044Z,1.00
2022-12-16T06:54:17.572Z,1.00
2022-12-16T06:57:03.021Z,1.00
2022-12-16T06:59:48.785Z,1.00
2022-12-16T07:02:34.376Z,1.00
2022-12-16T07:05:19.765Z,1.00
2022-12-16T07:08:09.294Z,1.00
2022-12-16T07:10:58.046Z,1.00
2022-12-16T07:13:48.662Z,1.00
2022-12-16T07:16:34.348Z,1.00
2022-12-16T07:19:19.808Z,1.00
2022-12-16T07:22:05.342Z,1.00
2022-12-16T07:24:50.704Z,1.00
2022-12-16T07:27:36.210Z,1.00
2022-12-16T07:30:21.645Z,1.00
2022-12-16T07:33:09.048Z,1.00
2022-12-16T07:35:54.500Z,1.00
2022-12-16T07:38:39.850Z,1.00
2022-12-16T07:41:25.386Z,1.00
2022-12-16T07:44:10.881Z,1.00
2022-12-16T07:46:56.240Z,1.00
2022-12-16T07:49:41.357Z,1.00
2022-12-16T07:52:26.888Z,1.00
2022-12-16T07:55:12.116Z,1.00
2022-12-16T07:57:57.585Z,1.00
2022-12-16T08:00:42.874Z,1.00
2022-12-16T08:03:28.454Z,1.00
2022-12-16T08:06:13.699Z,1.00
2022-12-16T08:08:59.193Z,1.00
2022-12-16T08:11:44.367Z,1.00
2022-12-16T08:14:30.066Z,1.00
2022-12-16T08:17:15.518Z,1.00
2022-12-16T08:20:00.731Z,1.00
2022-12-16T08:22:46.322Z,1.00
2022-12-16T08:25:31.721Z,1.00
2022-12-16T08:28:16.964Z,1.00
2022-12-16T08:31:02.335Z,1.00
2022-12-16T08:33:47.456Z,1.00
2022-12-16T08:36:32.922Z,1.00
2022-12-16T08:39:18.296Z,1.00
2022-12-16T08:42:03.704Z,1.00
2022-12-16T08:44:49.160Z,1.00
2022-12-16T08:47:34.272Z,1.00
2022-12-16T08:50:19.821Z,1.00
2022-12-16T08:53:05.127Z,1.00
2022-12-16T08:55:50.608Z,1.00
2022-12-16T08:58:41.001Z,1.00
2022-12-16T09:01:26.338Z,1.00
2022-12-16T09:04:19.044Z,1.00
2022-12-16T09:07:04.484Z,1.00
2022-12-16T09:09:49.677Z,1.00
2022-12-16T09:12:34.781Z,1.00
2022-12-16T09:15:20.154Z,1.00
2022-12-16T09:18:13.108Z,1.00
2022-12-16T09:20:58.363Z,1.00
2022-12-16T09:23:44.065Z,1.00
2022-12-16T09:26:29.506Z,1.00
2022-12-16T09:29:14.728Z,1.00
2022-12-16T09:32:00.192Z,1.00
2022-12-16T09:34:45.541Z,1.00
2022-12-16T09:37:30.648Z,1.00
2022-12-16T09:40:15.937Z,1.00
2022-12-16T09:43:14.783Z,1.00
2022-12-16T09:46:19.065Z,1.00
2022-12-16T09:49:24.487Z,1.00
2022-12-16T09:52:16.508Z,1.00
2022-12-16T09:55:05.459Z,1.00
2022-12-16T09:57:53.628Z,1.00
2022-12-16T10:00:52.233Z,1.00
2022-12-16T10:03:47.028Z,1.00
2022-12-16T10:06:51.946Z,1.00
2022-12-16T10:09:56.696Z,1.00
2022-12-16T10:12:56.062Z,1.00
2022-12-16T10:16:06.668Z,1.00
2022-12-16T10:19:06.098Z,1.00
2022-12-16T10:22:06.262Z,1.00
2022-12-16T10:25:46.884Z,1.00
2022-12-16T10:29:06.089Z,1.00
2022-12-16T10:31:52.461Z,1.00
2022-12-16T10:34:45.447Z,1.00
2022-12-16T10:37:36.952Z,1.00
2022-12-16T10:40:24.332Z,1.00
2022-12-16T10:43:22.908Z,1.00
2022-12-16T10:46:13.249Z,1.00
2022-12-16T10:48:58.497Z,1.00
2022-12-16T10:51:47.392Z,1.00
2022-12-16T10:54:51.552Z,1.00
2022-12-16T10:58:00.467Z,1.00
2022-12-16T11:01:10.505Z,1.00
2022-12-16T11:03:59.679Z,1.00
2022-12-16T11:06:54.079Z,1.00
2022-12-16T11:09:47.486Z,99.90
2022-12-16T11:12:34.052Z,99.90
2022-12-16T11:15:39.877Z,99.90
2022-12-16T11:18:33.020Z,99.90
2022-12-16T11:21:24.410Z,99.90
2022-12-16T11:24:28.657Z,99.90
2022-12-16T11:27:19.385Z,99.90
2022-12-16T11:30:20.226Z,99.90
2022-12-16T11:33:11.904Z,99.90
2022-12-16T11:36:06.162Z,99.90
2022-12-16T11:39:04.747Z,99.90
2022-12-16T11:42:02.236Z,99.90
2022-12-16T11:45:07.052Z,99.90
2022-12-16T11:47:59.645Z,99.90
2022-12-16T11:50:47.327Z,99.90
2022-12-16T11:53:44.437Z,99.90
2022-12-16T11:57:03.616Z,99.90
2022-12-16T12:00:01.152Z,99.90
2022-12-16T12:02:58.152Z,99.90
2022-12-16T12:06:07.104Z,99.90
2022-12-16T12:09:06.345Z,99.90
2022-12-16T12:11:55.633Z,99.90
2022-12-16T12:14:54.537Z,99.90
2022-12-16T12:17:59.025Z,99.90
2022-12-16T12:21:16.604Z,20.10
2022-12-16T12:24:26.766Z,1.00
2022-12-16T12:27:35.261Z,11.10
2022-12-16T12:30:34.699Z,28.20
2022-12-16T12:33:38.925Z,1.00
2022-12-16T12:36:44.462Z,1.00
2022-12-16T12:40:01.843Z,1.00
2022-12-16T12:42:56.379Z,1.00
2022-12-16T12:46:06.096Z,1.00
2022-12-16T12:49:05.934Z,1.00
2022-12-16T12:52:26.350Z,1.00
2022-12-16T12:55:38.968Z,1.00
2022-12-16T12:58:29.182Z,1.00
2022-12-16T13:01:16.217Z,1.00
2022-12-16T13:04:09.216Z,1.00
2022-12-16T13:10:48.281Z,1.00
2022-12-16T13:13:34.257Z,1.00
2022-12-16T13:16:20.952Z,1.00
2022-12-16T13:19:09.683Z,1.00
2022-12-16T13:21:56.280Z,1.00
2022-12-16T13:24:45.175Z,1.00
2022-12-16T13:30:35.215Z,1.00
2022-12-16T13:33:33.234Z,1.00
2022-12-16T13:36:19.862Z,1.00
2022-12-16T13:39:10.764Z,1.00
2022-12-16T13:41:56.208Z,1.00
2022-12-16T13:45:00.253Z,1.00
2022-12-16T13:48:00.729Z,1.00
2022-12-16T13:51:05.832Z,1.00
2022-12-16T13:53:58.396Z,1.00
2022-12-16T13:56:50.438Z,1.00
2022-12-16T13:59:50.588Z,1.00
2022-12-16T14:02:39.023Z,1.00
2022-12-16T14:05:43.716Z,1.00
2022-12-16T14:08:36.466Z,1.00
2022-12-16T14:11:36.688Z,1.00
2022-12-16T14:14:28.826Z,1.00
2022-12-16T14:17:21.809Z,1.00
2022-12-16T14:20:19.341Z,1.00
2022-12-16T14:23:26.890Z,1.00
2022-12-16T14:26:24.173Z,1.00
2022-12-16T14:29:12.704Z,1.00
2022-12-16T14:32:03.751Z,1.00
2022-12-16T14:34:51.679Z,1.00
2022-12-16T14:37:52.174Z,1.00
2022-12-16T14:40:40.085Z,1.00
2022-12-16T14:43:44.914Z,1.00
2022-12-16T14:46:50.383Z,1.00
2022-12-16T14:49:48.149Z,1.00
2022-12-16T14:52:52.881Z,1.00
2022-12-16T14:55:52.220Z,1.00
2022-12-16T14:58:42.731Z,1.00
2022-12-16T15:01:39.681Z,1.00
2022-12-16T15:04:36.064Z,1.00
2022-12-16T15:07:30.856Z,1.00
2022-12-16T15:10:18.188Z,1.00
2022-12-16T15:13:06.350Z,1.00
2022-12-16T15:16:00.445Z,1.00
2022-12-16T15:19:02.612Z,1.00
2022-12-16T15:21:54.369Z,1.00
2022-12-16T15:24:51.255Z,1.00
2022-12-16T15:27:39.396Z,1.00
2022-12-16T15:30:57.525Z,1.00
2022-12-16T15:33:45.879Z,1.00
2022-12-16T15:37:08.963Z,1.00
2022-12-16T15:39:59.443Z,1.00
2022-12-16T15:42:52.802Z,1.00
2022-12-16T15:45:50.299Z,1.00
2022-12-16T15:48:56.640Z,1.00
2022-12-16T15:52:02.038Z,1.00
2022-12-16T15:54:49.786Z,1.00
2022-12-16T15:57:46.065Z,1.00
2022-12-16T16:00:53.142Z,1.00
2022-12-16T16:03:52.916Z,1.00
2022-12-16T16:06:44.599Z,1.00
2022-12-16T16:09:50.490Z,1.00
2022-12-16T16:12:39.032Z,1.00
2022-12-16T16:15:29.621Z,1.00
2022-12-16T16:18:27.835Z,71.90
2022-12-16T16:21:13.555Z,15.20
2022-12-16T16:23:59.594Z,2.60
2022-12-16T16:26:49.245Z,99.90
2022-12-16T16:29:34.868Z,99.90
2022-12-16T16:32:20.778Z,99.90
2022-12-16T16:35:06.366Z,99.90
2022-12-16T16:37:55.023Z,99.90
2022-12-16T16:40:57.860Z,97.70
2022-12-16T16:43:44.035Z,99.90
2022-12-16T16:47:16.724Z,99.90
2022-12-16T16:50:05.453Z,99.90
2022-12-16T16:52:57.352Z,1.00
2022-12-16T16:55:43.959Z,1.00
2022-12-16T16:58:39.196Z,1.00
2022-12-16T17:01:24.617Z,1.00
2022-12-16T17:04:18.949Z,1.00
2022-12-16T17:07:05.616Z,1.00
2022-12-16T17:09:58.744Z,1.00
2022-12-16T17:12:51.663Z,1.00
2022-12-16T17:15:55.869Z,1.00
2022-12-16T17:18:45.553Z,1.00
2022-12-16T17:21:33.066Z,1.00
2022-12-16T17:24:21.698Z,1.00
2022-12-16T17:27:12.503Z,1.00
2022-12-16T17:30:00.609Z,78.40
2022-12-16T17:32:46.153Z,1.00
2022-12-16T17:35:31.699Z,99.90
2022-12-16T17:38:16.903Z,98.70
2022-12-16T17:41:02.384Z,99.90
2022-12-16T17:43:47.610Z,36.00
2022-12-16T17:46:33.175Z,83.50
2022-12-16T17:49:18.365Z,57.90
2022-12-16T17:52:03.890Z,11.00
2022-12-16T17:54:49.315Z,1.00
2022-12-16T17:57:34.846Z,1.00
2022-12-16T18:00:20.117Z,1.00
2022-12-16T18:03:05.397Z,1.00
2022-12-16T18:05:51.055Z,1.00
2022-12-16T18:08:39.465Z,1.00
2022-12-16T18:11:24.795Z,1.00
2022-12-16T18:14:10.030Z,1.00
2022-12-16T18:16:55.513Z,1.00
2022-12-16T18:19:40.608Z,1.00
2022-12-16T18:22:26.097Z,1.00
2022-12-16T18:25:11.441Z,1.00
2022-12-16T18:27:56.914Z,96.90
2022-12-16T18:30:42.110Z,1.00
2022-12-16T18:33:27.336Z,90.40
2022-12-16T18:36:12.576Z,99.90
2022-12-16T18:38:57.989Z,82.40
2022-12-16T18:41:43.587Z,99.90
2022-12-16T18:44:31.632Z,99.90
2022-12-16T18:47:17.454Z,1.00
2022-12-16T18:50:02.736Z,99.90
2022-12-16T18:52:48.210Z,99.90
2022-12-16T18:55:35.927Z,99.90
2022-12-16T18:58:49.509Z,99.90
2022-12-16T19:01:29.093Z,99.90
2022-12-16T19:04:15.743Z,21.40
2022-12-16T19:07:01.560Z,1.00
2022-12-16T19:09:47.103Z,40.90
2022-12-16T19:12:32.514Z,37.80
2022-12-16T19:15:18.065Z,39.10
2022-12-16T19:18:03.462Z,58.10
2022-12-16T19:20:48.993Z,99.90
2022-12-16T19:23:34.911Z,33.40
2022-12-16T19:26:20.505Z,93.30
2022-12-16T19:29:09.181Z,50.10
2022-12-16T19:31:56.091Z,91.10
2022-12-16T19:34:41.422Z,99.90
2022-12-16T19:37:26.666Z,99.90
2022-12-16T19:40:12.222Z,99.90
2022-12-16T19:42:57.787Z,1.00
2022-12-16T19:45:43.237Z,1.00
2022-12-16T19:48:28.662Z,1.00
2022-12-16T19:51:18.944Z,1.00
2022-12-16T19:54:07.430Z,1.00
2022-12-16T19:56:53.693Z,1.00
2022-12-16T19:59:41.048Z,1.00
2022-12-16T20:02:30.216Z,1.00
2022-12-16T20:05:15.887Z,1.00
2022-12-16T20:08:01.218Z,1.00
2022-12-16T20:10:46.604Z,1.00
2022-12-16T20:13:32.145Z,1.00
2022-12-16T20:16:28.396Z,1.00
2022-12-16T20:19:14.320Z,1.00
2022-12-16T20:22:06.461Z,1.00
2022-12-16T20:24:52.836Z,1.00
2022-12-16T20:27:41.778Z,1.00
2022-12-16T20:30:27.819Z,11.80
2022-12-16T20:33:13.220Z,6.70
2022-12-16T20:35:58.746Z,99.90
2022-12-16T20:38:44.200Z,22.10
2022-12-16T20:41:29.665Z,99.90
2022-12-16T20:44:15.224Z,75.90
2022-12-16T20:47:00.697Z,97.50
2022-12-16T20:49:46.188Z,97.60
2022-12-16T20:52:31.595Z,97.60
2022-12-16T20:55:17.008Z,97.60
2022-12-16T20:58:02.224Z,97.60
2022-12-16T21:00:47.456Z,97.60
2022-12-16T21:03:32.675Z,97.60
2022-12-16T21:06:18.142Z,97.60
2022-12-16T21:09:03.596Z,97.60
2022-12-16T21:11:48.931Z,97.70
2022-12-16T21:14:34.439Z,97.80
2022-12-16T21:17:19.838Z,97.80
2022-12-16T21:20:08.324Z,97.80
2022-12-16T21:22:54.592Z,98.10
2022-12-16T21:25:44.176Z,97.90
2022-12-16T21:28:30.699Z,98.00
2022-12-16T21:31:19.205Z,98.10
2022-12-16T21:34:04.809Z,98.00
2022-12-16T21:36:49.980Z,98.10
2022-12-16T21:39:35.313Z,98.10
2022-12-16T21:42:20.648Z,98.10
2022-12-16T21:45:06.174Z,97.80
2022-12-16T21:47:51.476Z,97.80
2022-12-16T21:50:37.149Z,97.90
2022-12-16T21:53:22.765Z,97.90
2022-12-16T21:56:12.309Z,97.90
2022-12-16T21:58:57.529Z,97.90
2022-12-16T22:01:43.084Z,97.80
2022-12-16T22:04:28.515Z,98.00
2022-12-16T22:07:13.901Z,97.80
2022-12-16T22:09:59.216Z,97.60
2022-12-16T22:12:44.462Z,97.60
2022-12-16T22:15:29.663Z,97.50
2022-12-16T22:18:17.902Z,97.50
2022-12-16T22:21:17.007Z,97.60
2022-12-16T22:24:02.552Z,97.50
2022-12-16T22:26:47.967Z,97.50
2022-12-16T22:29:33.504Z,97.50
2022-12-16T22:32:22.722Z,97.30
2022-12-16T22:35:08.069Z,97.40
2022-12-16T22:37:53.564Z,97.60
2022-12-16T22:40:41.484Z,97.40
2022-12-16T22:43:26.837Z,97.50
2022-12-16T22:46:20.082Z,97.20
2022-12-16T22:49:06.469Z,97.00
2022-12-16T22:51:52.328Z,97.10
2022-12-16T22:54:39.281Z,97.20
2022-12-16T22:57:24.717Z,97.20
2022-12-16T23:00:10.199Z,97.00
2022-12-16T23:02:55.579Z,97.10
2022-12-16T23:05:42.398Z,97.00
2022-12-16T23:08:27.750Z,97.10
2022-12-16T23:11:15.008Z,97.00
2022-12-16T23:14:00.333Z,97.10
2022-12-16T23:16:45.921Z,96.90
2022-12-16T23:19:31.331Z,96.80
2022-12-16T23:22:16.703Z,96.90
2022-12-16T23:25:02.099Z,97.10
2022-12-16T23:27:47.372Z,96.80
2022-12-16T23:30:32.902Z,96.80
2022-12-16T23:33:21.771Z,97.00
2022-12-16T23:36:07.033Z,97.00
2022-12-16T23:38:53.364Z,96.70
2022-12-16T23:41:39.171Z,96.90
2022-12-16T23:44:24.557Z,96.80
2022-12-16T23:47:09.952Z,96.90
2022-12-16T23:49:56.558Z,97.00
2022-12-16T23:52:42.209Z,97.00
2022-12-16T23:55:28.106Z,97.20
2022-12-16T23:58:20.885Z,96.90
